Weather at Kadugli Airport

Public forecast

Using degrees Celsius for public forecast. Weather courtesy of forecast.io.

Closest aviation weather report (METAR) to Kadugli Airport

Report is more than 6 hours old.

Closest report is Sarh Airport, 680.0 nm (1,259.3 km) W.

2022/11/14 15:00 (retrieved 2 years ago)

FTTA 141500Z 01008KT CAVOK 35/13 Q1011

Closest aviation forecast (TAF) to Kadugli Airport

Forecast is more than 12 hours old.

Closest forecast is Bahir Dar Airport, 449.4 nm (832.3 km) E.

2023/02/22 18:20 (retrieved 1 year ago)

TAF HAAB 221530Z 2218/2324 VRB04KT 9999 FEW020 FEW070 TAF HABD 221530Z 2218/2324 VRB08KT CAVOK